sensor_id;sensor_type;location;lat;lon;timestamp;P1;durP1;ratioP1;P2;durP2;ratioP2
19705;SDS011;10003;52.506;4.700;2023-02-28T00:01:10;1.00;;;1.00;;
19705;SDS011;10003;52.506;4.700;2023-02-28T00:03:45;1.60;;;1.60;;
19705;SDS011;10003;52.506;4.700;2023-02-28T00:06:26;2.07;;;1.93;;
19705;SDS011;10003;52.506;4.700;2023-02-28T00:09:30;1.40;;;1.30;;
19705;SDS011;10003;52.506;4.700;2023-02-28T00:12:17;4.53;;;2.10;;
19705;SDS011;10003;52.506;4.700;2023-02-28T00:14:55;2.07;;;1.97;;
19705;SDS011;10003;52.506;4.700;2023-02-28T00:17:36;1.77;;;1.67;;
19705;SDS011;10003;52.506;4.700;2023-02-28T00:20:20;1.17;;;1.17;;
19705;SDS011;10003;52.506;4.700;2023-02-28T00:23:33;3.93;;;1.93;;
19705;SDS011;10003;52.506;4.700;2023-02-28T00:26:17;4.57;;;2.87;;
19705;SDS011;10003;52.506;4.700;2023-02-28T00:28:52;1.53;;;1.53;;
19705;SDS011;10003;52.506;4.700;2023-02-28T00:31:32;1.57;;;1.57;;
19705;SDS011;10003;52.506;4.700;2023-02-28T00:34:06;1.70;;;1.50;;
19705;SDS011;10003;52.506;4.700;2023-02-28T00:39:43;1.83;;;1.67;;
19705;SDS011;10003;52.506;4.700;2023-02-28T00:42:18;1.50;;;1.50;;
19705;SDS011;10003;52.506;4.700;2023-02-28T00:44:47;1.20;;;1.20;;
19705;SDS011;10003;52.506;4.700;2023-02-28T00:47:28;5.50;;;1.70;;
19705;SDS011;10003;52.506;4.700;2023-02-28T00:50:06;2.03;;;1.93;;
19705;SDS011;10003;52.506;4.700;2023-02-28T00:52:48;1.83;;;1.73;;
19705;SDS011;10003;52.506;4.700;2023-02-28T00:55:32;5.13;;;2.07;;
19705;SDS011;10003;52.506;4.700;2023-02-28T00:58:07;3.70;;;2.67;;
19705;SDS011;10003;52.506;4.700;2023-02-28T01:00:43;2.53;;;2.00;;
19705;SDS011;10003;52.506;4.700;2023-02-28T01:03:15;2.40;;;2.20;;
19705;SDS011;10003;52.506;4.700;2023-02-28T01:05:59;2.13;;;2.00;;
19705;SDS011;10003;52.506;4.700;2023-02-28T01:08:49;2.67;;;1.87;;
19705;SDS011;10003;52.506;4.700;2023-02-28T01:11:43;5.23;;;2.30;;
19705;SDS011;10003;52.506;4.700;2023-02-28T01:14:14;3.40;;;2.17;;
19705;SDS011;10003;52.506;4.700;2023-02-28T01:16:58;2.37;;;2.27;;
19705;SDS011;10003;52.506;4.700;2023-02-28T01:19:37;1.17;;;1.17;;
19705;SDS011;10003;52.506;4.700;2023-02-28T01:22:12;2.13;;;1.97;;
19705;SDS011;10003;52.506;4.700;2023-02-28T01:24:57;1.60;;;1.50;;
19705;SDS011;10003;52.506;4.700;2023-02-28T01:28:02;2.10;;;2.00;;
19705;SDS011;10003;52.506;4.700;2023-02-28T01:33:37;1.60;;;1.50;;
19705;SDS011;10003;52.506;4.700;2023-02-28T01:36:52;4.50;;;3.33;;
19705;SDS011;10003;52.506;4.700;2023-02-28T01:39:26;1.20;;;1.20;;
19705;SDS011;10003;52.506;4.700;2023-02-28T01:42:12;1.90;;;1.80;;
19705;SDS011;10003;52.506;4.700;2023-02-28T01:48:32;1.63;;;1.63;;
19705;SDS011;10003;52.506;4.700;2023-02-28T01:51:40;1.20;;;1.20;;
19705;SDS011;10003;52.506;4.700;2023-02-28T01:54:46;0.90;;;0.90;;
19705;SDS011;10003;52.506;4.700;2023-02-28T01:57:35;1.00;;;1.00;;
19705;SDS011;10003;52.506;4.700;2023-02-28T02:03:30;1.97;;;1.87;;
19705;SDS011;10003;52.506;4.700;2023-02-28T02:06:18;5.30;;;2.17;;
19705;SDS011;10003;52.506;4.700;2023-02-28T02:08:50;1.50;;;1.50;;
19705;SDS011;10003;52.506;4.700;2023-02-28T02:11:35;1.73;;;1.63;;
19705;SDS011;10003;52.506;4.700;2023-02-28T02:17:32;1.80;;;1.70;;
19705;SDS011;10003;52.506;4.700;2023-02-28T02:23:33;1.30;;;1.30;;
19705;SDS011;10003;52.506;4.700;2023-02-28T02:35:20;1.87;;;1.77;;
19705;SDS011;10003;52.506;4.700;2023-02-28T02:38:11;2.77;;;1.80;;
19705;SDS011;10003;52.506;4.700;2023-02-28T02:41:08;2.00;;;1.83;;
19705;SDS011;10003;52.506;4.700;2023-02-28T02:43:51;1.73;;;1.63;;
19705;SDS011;10003;52.506;4.700;2023-02-28T02:46:47;2.77;;;1.10;;
19705;SDS011;10003;52.506;4.700;2023-02-28T02:49:23;1.00;;;1.00;;
19705;SDS011;10003;52.506;4.700;2023-02-28T02:52:06;1.27;;;1.27;;
19705;SDS011;10003;52.506;4.700;2023-02-28T02:54:42;1.47;;;1.47;;
19705;SDS011;10003;52.506;4.700;2023-02-28T02:57:48;0.87;;;0.87;;
19705;SDS011;10003;52.506;4.700;2023-02-28T03:03:48;2.20;;;2.10;;
19705;SDS011;10003;52.506;4.700;2023-02-28T03:06:36;0.90;;;0.90;;
19705;SDS011;10003;52.506;4.700;2023-02-28T03:09:19;1.07;;;1.07;;
19705;SDS011;10003;52.506;4.700;2023-02-28T03:11:54;1.23;;;1.23;;
19705;SDS011;10003;52.506;4.700;2023-02-28T03:14:54;1.87;;;1.77;;
19705;SDS011;10003;52.506;4.700;2023-02-28T03:20:30;2.00;;;1.87;;
19705;SDS011;10003;52.506;4.700;2023-02-28T03:23:10;1.10;;;1.10;;
19705;SDS011;10003;52.506;4.700;2023-02-28T03:26:06;1.40;;;1.40;;
19705;SDS011;10003;52.506;4.700;2023-02-28T03:28:49;1.00;;;1.00;;
19705;SDS011;10003;52.506;4.700;2023-02-28T03:32:12;1.70;;;1.60;;
19705;SDS011;10003;52.506;4.700;2023-02-28T03:34:56;1.20;;;1.20;;
19705;SDS011;10003;52.506;4.700;2023-02-28T03:37:47;9.73;;;3.07;;
19705;SDS011;10003;52.506;4.700;2023-02-28T03:40:37;2.10;;;1.30;;
19705;SDS011;10003;52.506;4.700;2023-02-28T03:43:22;1.70;;;1.70;;
19705;SDS011;10003;52.506;4.700;2023-02-28T03:46:00;2.37;;;1.37;;
19705;SDS011;10003;52.506;4.700;2023-02-28T03:48:31;1.20;;;1.20;;
19705;SDS011;10003;52.506;4.700;2023-02-28T03:51:22;1.00;;;1.00;;
19705;SDS011;10003;52.506;4.700;2023-02-28T03:54:12;1.60;;;1.60;;
19705;SDS011;10003;52.506;4.700;2023-02-28T03:57:23;3.60;;;3.27;;
19705;SDS011;10003;52.506;4.700;2023-02-28T04:00:14;4.43;;;2.27;;
19705;SDS011;10003;52.506;4.700;2023-02-28T04:02:59;1.67;;;1.60;;
19705;SDS011;10003;52.506;4.700;2023-02-28T04:05:35;3.57;;;3.07;;
19705;SDS011;10003;52.506;4.700;2023-02-28T04:08:16;2.10;;;1.83;;
19705;SDS011;10003;52.506;4.700;2023-02-28T04:10:50;0.80;;;0.80;;
19705;SDS011;10003;52.506;4.700;2023-02-28T04:13:46;1.10;;;1.10;;
19705;SDS011;10003;52.506;4.700;2023-02-28T04:16:27;0.93;;;0.93;;
19705;SDS011;10003;52.506;4.700;2023-02-28T04:19:17;1.00;;;1.00;;
19705;SDS011;10003;52.506;4.700;2023-02-28T04:22:09;1.87;;;1.87;;
19705;SDS011;10003;52.506;4.700;2023-02-28T04:24:49;0.80;;;0.80;;
19705;SDS011;10003;52.506;4.700;2023-02-28T04:27:19;2.20;;;1.73;;
19705;SDS011;10003;52.506;4.700;2023-02-28T04:30:07;0.90;;;0.90;;
19705;SDS011;10003;52.506;4.700;2023-02-28T04:32:49;0.90;;;0.90;;
19705;SDS011;10003;52.506;4.700;2023-02-28T04:35:17;0.90;;;0.90;;
19705;SDS011;10003;52.506;4.700;2023-02-28T04:38:07;1.03;;;1.03;;
19705;SDS011;10003;52.506;4.700;2023-02-28T04:41:15;1.00;;;1.00;;
19705;SDS011;10003;52.506;4.700;2023-02-28T04:44:01;0.93;;;0.93;;
19705;SDS011;10003;52.506;4.700;2023-02-28T04:46:29;1.60;;;1.50;;
19705;SDS011;10003;52.506;4.700;2023-02-28T04:49:04;0.80;;;0.80;;
19705;SDS011;10003;52.506;4.700;2023-02-28T04:51:44;1.30;;;1.30;;
19705;SDS011;10003;52.506;4.700;2023-02-28T04:54:22;1.30;;;1.20;;
19705;SDS011;10003;52.506;4.700;2023-02-28T04:56:59;1.00;;;1.00;;
19705;SDS011;10003;52.506;4.700;2023-02-28T05:05:37;1.10;;;1.10;;
19705;SDS011;10003;52.506;4.700;2023-02-28T05:08:19;2.07;;;1.97;;
19705;SDS011;10003;52.506;4.700;2023-02-28T05:10:51;0.93;;;0.93;;
19705;SDS011;10003;52.506;4.700;2023-02-28T05:13:19;1.30;;;1.30;;
19705;SDS011;10003;52.506;4.700;2023-02-28T05:15:55;0.80;;;0.80;;
19705;SDS011;10003;52.506;4.700;2023-02-28T05:18:37;0.90;;;0.90;;
19705;SDS011;10003;52.506;4.700;2023-02-28T05:21:24;0.80;;;0.80;;
19705;SDS011;10003;52.506;4.700;2023-02-28T05:23:56;2.00;;;1.90;;
19705;SDS011;10003;52.506;4.700;2023-02-28T05:26:44;1.00;;;1.00;;
19705;SDS011;10003;52.506;4.700;2023-02-28T05:29:13;0.80;;;0.80;;
19705;SDS011;10003;52.506;4.700;2023-02-28T05:31:51;0.93;;;0.93;;
19705;SDS011;10003;52.506;4.700;2023-02-28T05:34:38;1.23;;;1.23;;
19705;SDS011;10003;52.506;4.700;2023-02-28T05:37:17;1.13;;;1.13;;
19705;SDS011;10003;52.506;4.700;2023-02-28T05:40:09;0.93;;;0.93;;
19705;SDS011;10003;52.506;4.700;2023-02-28T05:45:22;0.80;;;0.80;;
19705;SDS011;10003;52.506;4.700;2023-02-28T05:48:13;1.10;;;1.10;;
19705;SDS011;10003;52.506;4.700;2023-02-28T05:50:52;0.80;;;0.80;;
19705;SDS011;10003;52.506;4.700;2023-02-28T05:53:36;0.80;;;0.80;;
19705;SDS011;10003;52.506;4.700;2023-02-28T05:56:09;0.80;;;0.80;;
19705;SDS011;10003;52.506;4.700;2023-02-28T05:58:45;0.80;;;0.80;;
19705;SDS011;10003;52.506;4.700;2023-02-28T06:01:21;0.80;;;0.80;;
19705;SDS011;10003;52.506;4.700;2023-02-28T06:04:05;1.77;;;1.67;;
19705;SDS011;10003;52.506;4.700;2023-02-28T06:07:04;2.07;;;1.97;;
19705;SDS011;10003;52.506;4.700;2023-02-28T06:09:41;5.60;;;4.70;;
19705;SDS011;10003;52.506;4.700;2023-02-28T06:12:17;4.37;;;3.90;;
19705;SDS011;10003;52.506;4.700;2023-02-28T06:14:58;5.23;;;4.57;;
19705;SDS011;10003;52.506;4.700;2023-02-28T06:17:37;8.17;;;3.27;;
19705;SDS011;10003;52.506;4.700;2023-02-28T06:20:06;3.13;;;2.67;;
19705;SDS011;10003;52.506;4.700;2023-02-28T06:23:00;4.97;;;3.60;;
19705;SDS011;10003;52.506;4.700;2023-02-28T06:25:50;1.00;;;1.00;;
19705;SDS011;10003;52.506;4.700;2023-02-28T06:28:38;2.53;;;2.43;;
19705;SDS011;10003;52.506;4.700;2023-02-28T06:31:12;2.17;;;2.03;;
19705;SDS011;10003;52.506;4.700;2023-02-28T06:33:45;2.23;;;2.03;;
19705;SDS011;10003;52.506;4.700;2023-02-28T06:36:14;5.10;;;3.20;;
19705;SDS011;10003;52.506;4.700;2023-02-28T06:38:43;1.77;;;1.67;;
19705;SDS011;10003;52.506;4.700;2023-02-28T06:41:13;7.37;;;3.23;;
19705;SDS011;10003;52.506;4.700;2023-02-28T06:43:41;5.03;;;2.97;;
19705;SDS011;10003;52.506;4.700;2023-02-28T06:46:17;0.80;;;0.80;;
19705;SDS011;10003;52.506;4.700;2023-02-28T06:48:51;3.53;;;3.20;;
19705;SDS011;10003;52.506;4.700;2023-02-28T06:51:22;2.47;;;2.37;;
19705;SDS011;10003;52.506;4.700;2023-02-28T06:53:53;1.27;;;1.27;;
19705;SDS011;10003;52.506;4.700;2023-02-28T06:56:24;1.13;;;1.13;;
19705;SDS011;10003;52.506;4.700;2023-02-28T06:58:58;1.73;;;1.60;;
19705;SDS011;10003;52.506;4.700;2023-02-28T07:01:29;4.27;;;2.70;;
19705;SDS011;10003;52.506;4.700;2023-02-28T07:04:04;2.03;;;1.97;;
19705;SDS011;10003;52.506;4.700;2023-02-28T07:06:33;3.43;;;2.33;;
19705;SDS011;10003;52.506;4.700;2023-02-28T07:09:02;1.70;;;1.67;;
19705;SDS011;10003;52.506;4.700;2023-02-28T07:11:32;6.80;;;5.60;;
19705;SDS011;10003;52.506;4.700;2023-02-28T07:14:17;4.67;;;2.10;;
19705;SDS011;10003;52.506;4.700;2023-02-28T07:16:56;3.03;;;2.73;;
19705;SDS011;10003;52.506;4.700;2023-02-28T07:19:44;2.23;;;1.93;;
19705;SDS011;10003;52.506;4.700;2023-02-28T07:22:12;2.10;;;1.93;;
19705;SDS011;10003;52.506;4.700;2023-02-28T07:24:41;3.43;;;3.13;;
19705;SDS011;10003;52.506;4.700;2023-02-28T07:27:50;13.37;;;3.30;;
19705;SDS011;10003;52.506;4.700;2023-02-28T07:30:19;5.70;;;4.40;;
19705;SDS011;10003;52.506;4.700;2023-02-28T07:32:47;13.97;;;11.40;;
19705;SDS011;10003;52.506;4.700;2023-02-28T07:35:17;17.87;;;13.43;;
19705;SDS011;10003;52.506;4.700;2023-02-28T07:37:49;17.33;;;14.43;;
19705;SDS011;10003;52.506;4.700;2023-02-28T07:40:18;14.40;;;12.00;;
19705;SDS011;10003;52.506;4.700;2023-02-28T07:42:50;21.50;;;16.30;;
19705;SDS011;10003;52.506;4.700;2023-02-28T07:45:20;21.47;;;16.67;;
19705;SDS011;10003;52.506;4.700;2023-02-28T07:47:49;14.40;;;11.20;;
19705;SDS011;10003;52.506;4.700;2023-02-28T07:50:20;20.37;;;16.57;;
19705;SDS011;10003;52.506;4.700;2023-02-28T07:52:51;19.43;;;14.93;;
19705;SDS011;10003;52.506;4.700;2023-02-28T07:55:19;17.07;;;12.80;;
19705;SDS011;10003;52.506;4.700;2023-02-28T07:57:52;16.63;;;14.00;;
19705;SDS011;10003;52.506;4.700;2023-02-28T08:00:25;24.90;;;17.80;;
19705;SDS011;10003;52.506;4.700;2023-02-28T08:02:55;24.77;;;18.57;;
19705;SDS011;10003;52.506;4.700;2023-02-28T08:05:24;10.83;;;8.90;;
19705;SDS011;10003;52.506;4.700;2023-02-28T08:07:52;22.83;;;17.27;;
19705;SDS011;10003;52.506;4.700;2023-02-28T08:10:21;20.93;;;16.90;;
19705;SDS011;10003;52.506;4.700;2023-02-28T08:12:51;22.40;;;19.70;;
19705;SDS011;10003;52.506;4.700;2023-02-28T08:15:19;5.20;;;4.77;;
19705;SDS011;10003;52.506;4.700;2023-02-28T08:17:48;7.03;;;4.90;;
19705;SDS011;10003;52.506;4.700;2023-02-28T08:20:16;2.97;;;2.87;;
19705;SDS011;10003;52.506;4.700;2023-02-28T08:22:48;8.87;;;7.93;;
19705;SDS011;10003;52.506;4.700;2023-02-28T08:25:17;17.93;;;15.30;;
19705;SDS011;10003;52.506;4.700;2023-02-28T08:27:45;20.70;;;18.60;;
19705;SDS011;10003;52.506;4.700;2023-02-28T08:30:16;20.47;;;18.47;;
19705;SDS011;10003;52.506;4.700;2023-02-28T08:32:44;17.70;;;16.00;;
19705;SDS011;10003;52.506;4.700;2023-02-28T08:35:13;22.77;;;20.67;;
19705;SDS011;10003;52.506;4.700;2023-02-28T08:37:41;16.17;;;14.50;;
19705;SDS011;10003;52.506;4.700;2023-02-28T08:40:11;19.50;;;16.00;;
19705;SDS011;10003;52.506;4.700;2023-02-28T08:42:47;21.47;;;18.30;;
19705;SDS011;10003;52.506;4.700;2023-02-28T08:45:17;18.03;;;14.67;;
19705;SDS011;10003;52.506;4.700;2023-02-28T08:47:47;18.97;;;16.50;;
19705;SDS011;10003;52.506;4.700;2023-02-28T08:50:20;13.37;;;11.97;;
19705;SDS011;10003;52.506;4.700;2023-02-28T08:52:49;5.70;;;5.10;;
19705;SDS011;10003;52.506;4.700;2023-02-28T08:55:18;14.10;;;12.63;;
19705;SDS011;10003;52.506;4.700;2023-02-28T08:57:47;17.00;;;14.07;;
19705;SDS011;10003;52.506;4.700;2023-02-28T09:00:18;8.17;;;7.33;;
19705;SDS011;10003;52.506;4.700;2023-02-28T09:02:46;17.17;;;14.57;;
19705;SDS011;10003;52.506;4.700;2023-02-28T09:05:15;22.57;;;15.43;;
19705;SDS011;10003;52.506;4.700;2023-02-28T09:07:43;11.37;;;10.03;;
19705;SDS011;10003;52.506;4.700;2023-02-28T09:10:12;18.13;;;16.17;;
19705;SDS011;10003;52.506;4.700;2023-02-28T09:12:40;23.50;;;20.27;;
19705;SDS011;10003;52.506;4.700;2023-02-28T09:15:12;19.77;;;17.50;;
19705;SDS011;10003;52.506;4.700;2023-02-28T09:17:42;20.47;;;18.27;;
19705;SDS011;10003;52.506;4.700;2023-02-28T09:20:13;18.93;;;16.00;;
19705;SDS011;10003;52.506;4.700;2023-02-28T09:22:42;15.97;;;13.70;;
19705;SDS011;10003;52.506;4.700;2023-02-28T09:25:10;17.63;;;13.93;;
19705;SDS011;10003;52.506;4.700;2023-02-28T09:27:39;22.17;;;19.10;;
19705;SDS011;10003;52.506;4.700;2023-02-28T09:30:12;12.87;;;11.20;;
19705;SDS011;10003;52.506;4.700;2023-02-28T09:32:42;5.80;;;5.30;;
19705;SDS011;10003;52.506;4.700;2023-02-28T09:35:18;6.33;;;5.70;;
19705;SDS011;10003;52.506;4.700;2023-02-28T09:37:47;9.70;;;8.70;;
19705;SDS011;10003;52.506;4.700;2023-02-28T09:40:16;2.80;;;2.50;;
19705;SDS011;10003;52.506;4.700;2023-02-28T09:42:45;7.50;;;5.70;;
19705;SDS011;10003;52.506;4.700;2023-02-28T09:45:18;2.80;;;2.67;;
19705;SDS011;10003;52.506;4.700;2023-02-28T09:47:49;10.17;;;8.10;;
19705;SDS011;10003;52.506;4.700;2023-02-28T09:50:21;4.13;;;3.83;;
19705;SDS011;10003;52.506;4.700;2023-02-28T09:52:53;5.43;;;4.13;;
19705;SDS011;10003;52.506;4.700;2023-02-28T09:55:25;3.57;;;3.27;;
19705;SDS011;10003;52.506;4.700;2023-02-28T09:58:08;5.80;;;5.07;;
19705;SDS011;10003;52.506;4.700;2023-02-28T10:00:43;6.00;;;5.43;;
19705;SDS011;10003;52.506;4.700;2023-02-28T10:03:19;10.40;;;4.63;;
19705;SDS011;10003;52.506;4.700;2023-02-28T10:05:51;3.37;;;3.10;;
19705;SDS011;10003;52.506;4.700;2023-02-28T10:08:21;2.30;;;2.20;;
19705;SDS011;10003;52.506;4.700;2023-02-28T10:10:53;7.07;;;6.37;;
19705;SDS011;10003;52.506;4.700;2023-02-28T10:13:24;6.73;;;6.07;;
19705;SDS011;10003;52.506;4.700;2023-02-28T10:15:54;6.43;;;5.77;;
19705;SDS011;10003;52.506;4.700;2023-02-28T10:18:25;4.13;;;3.73;;
19705;SDS011;10003;52.506;4.700;2023-02-28T10:20:55;7.33;;;4.80;;
19705;SDS011;10003;52.506;4.700;2023-02-28T10:23:25;3.33;;;3.13;;
19705;SDS011;10003;52.506;4.700;2023-02-28T10:25:57;1.80;;;1.80;;
19705;SDS011;10003;52.506;4.700;2023-02-28T10:28:27;3.73;;;2.23;;
19705;SDS011;10003;52.506;4.700;2023-02-28T10:30:57;1.20;;;1.20;;
19705;SDS011;10003;52.506;4.700;2023-02-28T10:33:29;2.40;;;2.20;;
19705;SDS011;10003;52.506;4.700;2023-02-28T10:35:58;3.67;;;3.37;;
19705;SDS011;10003;52.506;4.700;2023-02-28T10:38:32;3.10;;;2.30;;
19705;SDS011;10003;52.506;4.700;2023-02-28T10:41:04;2.43;;;2.33;;
19705;SDS011;10003;52.506;4.700;2023-02-28T10:43:33;3.87;;;2.57;;
19705;SDS011;10003;52.506;4.700;2023-02-28T10:46:02;1.57;;;1.50;;
19705;SDS011;10003;52.506;4.700;2023-02-28T10:48:34;1.83;;;1.73;;
19705;SDS011;10003;52.506;4.700;2023-02-28T10:51:04;3.73;;;3.33;;
19705;SDS011;10003;52.506;4.700;2023-02-28T10:53:35;3.73;;;3.43;;
19705;SDS011;10003;52.506;4.700;2023-02-28T10:56:24;2.90;;;2.50;;
19705;SDS011;10003;52.506;4.700;2023-02-28T10:58:54;4.27;;;3.23;;
19705;SDS011;10003;52.506;4.700;2023-02-28T11:01:24;4.63;;;4.23;;
19705;SDS011;10003;52.506;4.700;2023-02-28T11:03:54;1.37;;;1.37;;
19705;SDS011;10003;52.506;4.700;2023-02-28T11:06:24;4.07;;;3.30;;
19705;SDS011;10003;52.506;4.700;2023-02-28T11:08:54;2.93;;;2.67;;
19705;SDS011;10003;52.506;4.700;2023-02-28T11:11:24;4.30;;;3.90;;
19705;SDS011;10003;52.506;4.700;2023-02-28T11:13:57;2.80;;;2.60;;
19705;SDS011;10003;52.506;4.700;2023-02-28T11:16:36;2.83;;;2.63;;
19705;SDS011;10003;52.506;4.700;2023-02-28T11:19:06;7.07;;;4.00;;
19705;SDS011;10003;52.506;4.700;2023-02-28T11:21:46;5.57;;;2.57;;
19705;SDS011;10003;52.506;4.700;2023-02-28T11:24:19;3.90;;;3.60;;
19705;SDS011;10003;52.506;4.700;2023-02-28T11:26:49;3.23;;;2.93;;
19705;SDS011;10003;52.506;4.700;2023-02-28T11:29:19;3.47;;;1.83;;
19705;SDS011;10003;52.506;4.700;2023-02-28T11:32:01;1.63;;;1.53;;
19705;SDS011;10003;52.506;4.700;2023-02-28T11:34:31;6.00;;;3.80;;
19705;SDS011;10003;52.506;4.700;2023-02-28T11:37:00;2.80;;;2.57;;
19705;SDS011;10003;52.506;4.700;2023-02-28T11:39:31;1.53;;;1.50;;
19705;SDS011;10003;52.506;4.700;2023-02-28T11:42:04;3.70;;;2.97;;
19705;SDS011;10003;52.506;4.700;2023-02-28T11:44:38;3.20;;;2.93;;
19705;SDS011;10003;52.506;4.700;2023-02-28T11:47:09;3.67;;;2.93;;
19705;SDS011;10003;52.506;4.700;2023-02-28T11:52:29;3.23;;;2.60;;
19705;SDS011;10003;52.506;4.700;2023-02-28T11:55:06;4.07;;;2.60;;
19705;SDS011;10003;52.506;4.700;2023-02-28T11:57:46;1.20;;;1.20;;
19705;SDS011;10003;52.506;4.700;2023-02-28T12:00:19;2.50;;;2.30;;
19705;SDS011;10003;52.506;4.700;2023-02-28T12:02:57;2.07;;;1.70;;
19705;SDS011;10003;52.506;4.700;2023-02-28T12:05:29;2.53;;;2.10;;
19705;SDS011;10003;52.506;4.700;2023-02-28T12:08:03;1.67;;;1.57;;
19705;SDS011;10003;52.506;4.700;2023-02-28T12:10:35;1.63;;;1.53;;
19705;SDS011;10003;52.506;4.700;2023-02-28T12:13:08;1.63;;;1.53;;
19705;SDS011;10003;52.506;4.700;2023-02-28T12:15:47;2.10;;;1.73;;
19705;SDS011;10003;52.506;4.700;2023-02-28T12:18:22;1.80;;;1.70;;
19705;SDS011;10003;52.506;4.700;2023-02-28T12:20:53;1.80;;;1.77;;
19705;SDS011;10003;52.506;4.700;2023-02-28T12:23:36;1.83;;;1.73;;
19705;SDS011;10003;52.506;4.700;2023-02-28T12:26:11;2.67;;;2.47;;
19705;SDS011;10003;52.506;4.700;2023-02-28T12:28:42;1.80;;;1.70;;
19705;SDS011;10003;52.506;4.700;2023-02-28T12:31:16;1.13;;;1.13;;
19705;SDS011;10003;52.506;4.700;2023-02-28T12:33:46;1.90;;;1.80;;
19705;SDS011;10003;52.506;4.700;2023-02-28T12:36:16;1.23;;;1.23;;
19705;SDS011;10003;52.506;4.700;2023-02-28T12:38:50;2.00;;;1.40;;
19705;SDS011;10003;52.506;4.700;2023-02-28T12:41:25;1.80;;;1.70;;
19705;SDS011;10003;52.506;4.700;2023-02-28T12:43:55;1.30;;;1.30;;
19705;SDS011;10003;52.506;4.700;2023-02-28T12:46:27;1.17;;;1.17;;
19705;SDS011;10003;52.506;4.700;2023-02-28T12:48:57;1.37;;;1.37;;
19705;SDS011;10003;52.506;4.700;2023-02-28T12:51:27;1.20;;;1.20;;
19705;SDS011;10003;52.506;4.700;2023-02-28T12:53:59;1.80;;;1.70;;
19705;SDS011;10003;52.506;4.700;2023-02-28T12:56:33;1.83;;;1.73;;
19705;SDS011;10003;52.506;4.700;2023-02-28T12:59:10;1.03;;;1.03;;
19705;SDS011;10003;52.506;4.700;2023-02-28T13:01:47;1.53;;;1.53;;
19705;SDS011;10003;52.506;4.700;2023-02-28T13:07:30;1.30;;;1.30;;
19705;SDS011;10003;52.506;4.700;2023-02-28T13:10:04;1.10;;;1.10;;
19705;SDS011;10003;52.506;4.700;2023-02-28T13:12:34;1.80;;;1.70;;
19705;SDS011;10003;52.506;4.700;2023-02-28T13:15:04;1.10;;;1.10;;
19705;SDS011;10003;52.506;4.700;2023-02-28T13:17:38;1.97;;;1.87;;
19705;SDS011;10003;52.506;4.700;2023-02-28T13:20:14;1.53;;;1.43;;
19705;SDS011;10003;52.506;4.700;2023-02-28T13:22:43;1.87;;;1.73;;
19705;SDS011;10003;52.506;4.700;2023-02-28T13:28:01;1.47;;;1.40;;
19705;SDS011;10003;52.506;4.700;2023-02-28T13:33:20;1.97;;;1.87;;
19705;SDS011;10003;52.506;4.700;2023-02-28T13:35:49;1.73;;;1.63;;
19705;SDS011;10003;52.506;4.700;2023-02-28T13:38:33;1.73;;;1.63;;
19705;SDS011;10003;52.506;4.700;2023-02-28T13:44:03;1.53;;;1.53;;
19705;SDS011;10003;52.506;4.700;2023-02-28T13:49:24;1.13;;;1.13;;
19705;SDS011;10003;52.506;4.700;2023-02-28T13:51:55;2.57;;;1.40;;
19705;SDS011;10003;52.506;4.700;2023-02-28T13:54:34;2.43;;;2.23;;
19705;SDS011;10003;52.506;4.700;2023-02-28T13:57:11;1.63;;;1.53;;
19705;SDS011;10003;52.506;4.700;2023-02-28T13:59:46;2.23;;;2.10;;
19705;SDS011;10003;52.506;4.700;2023-02-28T14:05:04;1.73;;;1.63;;
19705;SDS011;10003;52.506;4.700;2023-02-28T14:07:45;1.00;;;1.00;;
19705;SDS011;10003;52.506;4.700;2023-02-28T14:10:22;1.97;;;1.73;;
19705;SDS011;10003;52.506;4.700;2023-02-28T14:12:58;5.07;;;2.27;;
19705;SDS011;10003;52.506;4.700;2023-02-28T14:18:17;2.33;;;2.23;;
19705;SDS011;10003;52.506;4.700;2023-02-28T14:20:50;2.00;;;1.90;;
19705;SDS011;10003;52.506;4.700;2023-02-28T14:23:30;2.03;;;1.90;;
19705;SDS011;10003;52.506;4.700;2023-02-28T14:26:00;2.03;;;1.93;;
19705;SDS011;10003;52.506;4.700;2023-02-28T14:28:39;1.93;;;1.83;;
19705;SDS011;10003;52.506;4.700;2023-02-28T14:31:09;2.33;;;2.10;;
19705;SDS011;10003;52.506;4.700;2023-02-28T14:33:44;2.43;;;1.70;;
19705;SDS011;10003;52.506;4.700;2023-02-28T14:36:16;1.53;;;1.43;;
19705;SDS011;10003;52.506;4.700;2023-02-28T14:38:46;2.43;;;2.23;;
19705;SDS011;10003;52.506;4.700;2023-02-28T14:41:21;3.03;;;2.03;;
19705;SDS011;10003;52.506;4.700;2023-02-28T14:43:51;3.40;;;3.10;;
19705;SDS011;10003;52.506;4.700;2023-02-28T14:46:22;2.70;;;2.47;;
19705;SDS011;10003;52.506;4.700;2023-02-28T14:48:53;2.23;;;2.13;;
19705;SDS011;10003;52.506;4.700;2023-02-28T14:51:22;2.27;;;2.17;;
19705;SDS011;10003;52.506;4.700;2023-02-28T14:53:52;1.93;;;1.83;;
19705;SDS011;10003;52.506;4.700;2023-02-28T14:56:23;2.17;;;2.07;;
19705;SDS011;10003;52.506;4.700;2023-02-28T14:58:53;1.73;;;1.63;;
19705;SDS011;10003;52.506;4.700;2023-02-28T15:01:23;5.57;;;1.80;;
19705;SDS011;10003;52.506;4.700;2023-02-28T15:04:01;2.73;;;2.23;;
19705;SDS011;10003;52.506;4.700;2023-02-28T15:06:30;2.40;;;2.30;;
19705;SDS011;10003;52.506;4.700;2023-02-28T15:09:06;1.37;;;1.37;;
19705;SDS011;10003;52.506;4.700;2023-02-28T15:11:35;2.07;;;1.83;;
19705;SDS011;10003;52.506;4.700;2023-02-28T15:14:04;2.20;;;2.03;;
19705;SDS011;10003;52.506;4.700;2023-02-28T15:16:33;2.77;;;2.13;;
19705;SDS011;10003;52.506;4.700;2023-02-28T15:19:06;2.67;;;2.37;;
19705;SDS011;10003;52.506;4.700;2023-02-28T15:21:37;1.77;;;1.67;;
19705;SDS011;10003;52.506;4.700;2023-02-28T15:24:06;2.27;;;2.07;;
19705;SDS011;10003;52.506;4.700;2023-02-28T15:26:37;1.80;;;1.70;;
19705;SDS011;10003;52.506;4.700;2023-02-28T15:29:07;2.37;;;2.17;;
19705;SDS011;10003;52.506;4.700;2023-02-28T15:31:39;1.27;;;1.27;;
19705;SDS011;10003;52.506;4.700;2023-02-28T15:34:26;1.77;;;1.67;;
19705;SDS011;10003;52.506;4.700;2023-02-28T15:37:06;4.20;;;2.33;;
19705;SDS011;10003;52.506;4.700;2023-02-28T15:39:40;3.10;;;2.47;;
19705;SDS011;10003;52.506;4.700;2023-02-28T15:42:09;2.70;;;2.50;;
19705;SDS011;10003;52.506;4.700;2023-02-28T15:44:38;2.07;;;1.93;;
19705;SDS011;10003;52.506;4.700;2023-02-28T15:47:11;2.47;;;2.37;;
19705;SDS011;10003;52.506;4.700;2023-02-28T15:49:46;1.90;;;1.80;;
19705;SDS011;10003;52.506;4.700;2023-02-28T15:52:16;2.80;;;2.30;;
19705;SDS011;10003;52.506;4.700;2023-02-28T15:54:45;2.80;;;2.60;;
19705;SDS011;10003;52.506;4.700;2023-02-28T15:57:15;2.80;;;2.60;;
19705;SDS011;10003;52.506;4.700;2023-02-28T15:59:48;2.13;;;2.03;;
19705;SDS011;10003;52.506;4.700;2023-02-28T16:02:18;2.10;;;2.00;;
19705;SDS011;10003;52.506;4.700;2023-02-28T16:04:58;1.73;;;1.63;;
19705;SDS011;10003;52.506;4.700;2023-02-28T16:07:28;4.27;;;2.17;;
19705;SDS011;10003;52.506;4.700;2023-02-28T16:09:56;1.63;;;1.53;;
19705;SDS011;10003;52.506;4.700;2023-02-28T16:12:28;2.03;;;1.93;;
19705;SDS011;10003;52.506;4.700;2023-02-28T16:14:58;1.97;;;1.80;;
19705;SDS011;10003;52.506;4.700;2023-02-28T16:17:29;2.50;;;2.13;;
19705;SDS011;10003;52.506;4.700;2023-02-28T16:19:59;1.97;;;1.57;;
19705;SDS011;10003;52.506;4.700;2023-02-28T16:22:29;2.47;;;1.93;;
19705;SDS011;10003;52.506;4.700;2023-02-28T16:24:57;1.93;;;1.83;;
19705;SDS011;10003;52.506;4.700;2023-02-28T16:27:30;2.00;;;1.90;;
19705;SDS011;10003;52.506;4.700;2023-02-28T16:30:00;2.23;;;2.13;;
19705;SDS011;10003;52.506;4.700;2023-02-28T16:32:28;1.83;;;1.73;;
19705;SDS011;10003;52.506;4.700;2023-02-28T16:34:58;2.47;;;2.33;;
19705;SDS011;10003;52.506;4.700;2023-02-28T16:37:30;2.33;;;2.23;;
19705;SDS011;10003;52.506;4.700;2023-02-28T16:40:00;2.87;;;2.63;;
19705;SDS011;10003;52.506;4.700;2023-02-28T16:42:30;2.00;;;1.90;;
19705;SDS011;10003;52.506;4.700;2023-02-28T16:45:01;1.87;;;1.77;;